Time;durP1;ratioP1;P1;durP2;ratioP2;P2;SDS_P1;SDS_P2;PMS_P1;PMS_P2;Temp;Humidity;BMP_temperature;BMP_pressure;BME280_temperature;BME280_humidity;BME280_pressure;Samples;Min_cycle;Max_cycle;Signal;HPM_P1;HPM_P2
2022/10/04 00:00:07;;;;;;;19.70;11.23;;;12.20;99.90;;;;;;5022797;28;20087;-79
2022/10/04 00:05:25;;;;;;;17.92;9.45;;;12.50;99.90;;;;;;4468903;22;20053;-74
2022/10/04 00:07:56;;;;;;;26.40;10.27;;;12.20;99.90;;;;;;5022140;28;20829;-78
2022/10/04 00:10:29;;;;;;;25.92;11.13;;;12.20;99.90;;;;;;5026757;28;20071;-79
2022/10/04 00:12:58;;;;;;;19.63;12.35;;;12.30;99.90;;;;;;5027968;28;20045;-79
2022/10/04 00:15:36;;;;;;;27.70;12.98;;;12.20;99.90;;;;;;5030041;28;20090;-78
2022/10/04 00:18:11;;;;;;;28.92;16.92;;;12.00;99.90;;;;;;5036494;28;20404;-82
2022/10/04 00:20:54;;;;;;;29.05;14.27;;;12.10;99.90;;;;;;5020857;28;20049;-77
2022/10/04 00:23:20;;;;;;;24.35;15.20;;;12.10;99.90;;;;;;5030575;28;20139;-80
2022/10/04 00:25:45;;;;;;;27.25;15.52;;;12.40;99.90;;;;;;5025325;28;20038;-79
2022/10/04 00:28:25;;;;;;;27.15;15.57;;;12.10;99.90;;;;;;5019831;28;20088;-74
2022/10/04 00:31:24;;;;;;;24.55;13.90;;;12.40;99.90;;;;;;5002042;28;20515;-77
2022/10/04 00:34:03;;;;;;;17.77;12.10;;;12.30;99.90;;;;;;5018217;28;20055;-80
2022/10/04 00:36:35;;;;;;;27.05;11.73;;;12.40;99.90;;;;;;5035886;28;20045;-80
2022/10/04 00:39:03;;;;;;;24.65;11.02;;;12.00;99.90;;;;;;5040195;28;20045;-79
2022/10/04 00:41:47;;;;;;;20.90;10.63;;;12.40;99.90;;;;;;5035753;28;20525;-75
2022/10/04 00:44:22;;;;;;;26.20;12.85;;;12.30;99.90;;;;;;5007642;28;20140;-79
2022/10/04 00:46:49;;;;;;;43.80;12.20;;;12.30;99.90;;;;;;5038663;28;20115;-80
2022/10/04 00:49:18;;;;;;;25.15;11.05;;;12.20;99.90;;;;;;5036828;28;20094;-77
2022/10/04 00:51:51;;;;;;;25.80;11.80;;;12.20;99.90;;;;;;5022310;28;20467;-77
2022/10/04 00:54:34;;;;;;;20.38;10.55;;;12.30;99.90;;;;;;5038639;28;20049;-77
2022/10/04 00:57:07;;;;;;;24.83;10.18;;;12.20;99.90;;;;;;5002459;28;20125;-79
2022/10/04 00:59:43;;;;;;;24.83;9.35;;;12.40;99.90;;;;;;5031470;28;20048;-79
2022/10/04 01:02:20;;;;;;;16.27;8.45;;;12.40;99.90;;;;;;5015751;28;20045;-72
2022/10/04 01:05:03;;;;;;;25.35;9.48;;;12.20;99.90;;;;;;5040123;28;20052;-77
2022/10/04 01:07:46;;;;;;;19.30;9.65;;;12.20;99.90;;;;;;5030739;28;20872;-73
2022/10/04 01:10:35;;;;;;;19.55;9.27;;;12.30;99.90;;;;;;5002408;28;20060;-79
2022/10/04 01:13:11;;;;;;;20.83;9.82;;;12.30;99.90;;;;;;5031629;28;20037;-79
2022/10/04 01:16:01;;;;;;;23.10;9.73;;;12.00;99.90;;;;;;5042909;28;20062;-76
2022/10/04 01:18:30;;;;;;;18.40;9.18;;;12.30;99.90;;;;;;5027869;28;20045;-76
2022/10/04 01:21:06;;;;;;;23.42;8.98;;;12.40;99.90;;;;;;5021119;28;20045;-79
2022/10/04 01:23:36;;;;;;;22.98;9.82;;;12.40;99.90;;;;;;5033974;28;20348;-78
2022/10/04 01:26:04;;;;;;;15.85;7.55;;;12.40;99.90;;;;;;5017491;28;20052;-81
2022/10/04 01:28:33;;;;;;;19.55;9.57;;;12.40;99.90;;;;;;5023315;28;20041;-78
2022/10/04 01:30:59;;;;;;;12.15;8.23;;;12.40;99.90;;;;;;5033886;28;20078;-74
2022/10/04 01:33:24;;;;;;;17.15;8.38;;;12.10;99.90;;;;;;5040184;28;20048;-78
2022/10/04 01:35:50;;;;;;;15.50;8.65;;;12.10;99.90;;;;;;5026589;28;20041;-74
2022/10/04 01:38:16;;;;;;;23.33;10.50;;;12.10;99.90;;;;;;5022635;28;20043;-79
2022/10/04 01:40:49;;;;;;;16.70;10.13;;;12.20;99.90;;;;;;5031268;28;20045;-79
2022/10/04 01:43:26;;;;;;;24.70;9.18;;;12.20;99.90;;;;;;5004355;28;20085;-80
2022/10/04 01:45:58;;;;;;;31.13;10.57;;;12.10;99.90;;;;;;5031299;28;20072;-81
2022/10/04 01:48:31;;;;;;;17.92;7.95;;;12.00;99.90;;;;;;5042135;28;20057;-81
2022/10/04 01:51:03;;;;;;;15.60;9.05;;;12.10;99.90;;;;;;5021960;28;20044;-77
2022/10/04 01:53:35;;;;;;;20.63;10.80;;;12.30;99.90;;;;;;5036656;28;20552;-74
2022/10/04 01:56:11;;;;;;;21.80;9.45;;;12.00;99.90;;;;;;5031461;28;20049;-76
2022/10/04 01:58:50;;;;;;;19.65;9.10;;;12.20;99.90;;;;;;5023305;28;20049;-79
2022/10/04 02:01:26;;;;;;;31.65;12.20;;;12.10;99.90;;;;;;5028613;28;20045;-79
2022/10/04 02:04:01;;;;;;;22.45;9.77;;;12.10;99.90;;;;;;5021648;28;20505;-78
2022/10/04 02:06:34;;;;;;;20.23;10.10;;;11.80;99.90;;;;;;5021096;28;20119;-75
2022/10/04 02:09:07;;;;;;;18.92;8.85;;;12.00;99.90;;;;;;5037727;28;20397;-79
2022/10/04 02:11:35;;;;;;;17.80;8.95;;;11.80;99.90;;;;;;5028319;28;20045;-80
2022/10/04 02:14:04;;;;;;;19.83;10.07;;;11.70;99.90;;;;;;5033691;28;20057;-80
2022/10/04 02:16:34;;;;;;;27.00;10.32;;;11.70;99.90;;;;;;5035406;28;20041;-74
2022/10/04 02:19:02;;;;;;;18.05;9.57;;;11.70;99.90;;;;;;5020064;28;20044;-80
2022/10/04 02:21:28;;;;;;;20.38;9.13;;;11.80;99.90;;;;;;5027190;28;20056;-75
2022/10/04 02:23:56;;;;;;;18.85;9.73;;;11.90;99.90;;;;;;5024302;28;20037;-79
2022/10/04 02:26:21;;;;;;;20.88;8.20;;;11.80;99.90;;;;;;5021772;28;20050;-79
2022/10/04 02:28:48;;;;;;;16.90;9.13;;;11.50;99.90;;;;;;5020962;28;20048;-78
2022/10/04 02:33:59;;;;;;;21.85;9.93;;;11.50;99.90;;;;;;5020991;28;20063;-78
2022/10/04 02:36:28;;;;;;;18.70;9.13;;;11.40;99.90;;;;;;5016132;28;20052;-80
2022/10/04 02:39:05;;;;;;;13.85;9.20;;;11.50;99.90;;;;;;5048630;28;20033;-79
2022/10/04 02:41:41;;;;;;;19.45;8.45;;;11.70;99.90;;;;;;5049444;28;20083;-79
2022/10/04 02:44:22;;;;;;;16.73;9.43;;;11.30;99.90;;;;;;5062432;28;20136;-80
2022/10/04 02:47:12;;;;;;;15.85;8.50;;;11.40;99.90;;;;;;5026147;28;20076;-80
2022/10/04 02:49:42;;;;;;;15.20;9.48;;;11.50;99.90;;;;;;5033178;28;20072;-79
2022/10/04 02:52:31;;;;;;;20.42;9.52;;;11.10;99.90;;;;;;5044607;28;20487;-81
2022/10/04 02:55:01;;;;;;;24.75;10.57;;;11.40;99.90;;;;;;5038116;28;20048;-76
2022/10/04 02:57:29;;;;;;;17.90;10.30;;;11.00;99.90;;;;;;5020880;28;20038;-79
2022/10/04 03:00:30;;;;;;;20.02;11.23;;;11.40;99.90;;;;;;5032302;28;20121;-77
2022/10/04 03:03:28;;;;;;;15.18;9.43;;;11.10;99.90;;;;;;5041007;28;20045;-78
2022/10/04 03:06:08;;;;;;;17.75;9.02;;;11.20;99.90;;;;;;5038609;28;20419;-77
2022/10/04 03:08:42;;;;;;;13.68;9.40;;;11.30;99.90;;;;;;5031552;28;20041;-79
2022/10/04 03:11:10;;;;;;;21.33;11.43;;;11.20;99.90;;;;;;5041385;28;20041;-80
2022/10/04 03:13:38;;;;;;;24.70;11.05;;;11.10;99.90;;;;;;5049519;28;20041;-80
2022/10/04 03:16:04;;;;;;;15.90;9.20;;;11.10;99.90;;;;;;5038716;28;20466;-80
2022/10/04 03:18:31;;;;;;;16.45;9.75;;;11.10;99.90;;;;;;5031623;28;20507;-79
2022/10/04 03:21:01;;;;;;;21.48;10.23;;;11.00;99.90;;;;;;5030082;28;20898;-76
2022/10/04 03:23:29;;;;;;;18.90;10.15;;;11.20;99.90;;;;;;5039665;28;20102;-75
2022/10/04 03:26:11;;;;;;;23.48;11.02;;;10.80;99.90;;;;;;5027762;28;20045;-79
2022/10/04 03:28:37;;;;;;;16.13;9.55;;;10.90;99.90;;;;;;5032821;28;20056;-84
2022/10/04 03:31:03;;;;;;;13.00;9.98;;;11.00;99.90;;;;;;5037566;28;20041;-75
2022/10/04 03:33:29;;;;;;;15.27;9.55;;;11.00;99.90;;;;;;5039366;28;20064;-77
2022/10/04 03:35:59;;;;;;;19.27;9.65;;;10.90;99.90;;;;;;5036178;28;20041;-79
2022/10/04 03:38:25;;;;;;;22.88;10.70;;;10.80;99.90;;;;;;5021208;28;20041;-76
2022/10/04 03:40:57;;;;;;;33.55;12.82;;;10.90;99.90;;;;;;5018208;28;20643;-79
2022/10/04 03:43:27;;;;;;;23.52;10.32;;;10.90;99.90;;;;;;5038458;28;20142;-76
2022/10/04 03:45:54;;;;;;;16.50;10.13;;;10.50;99.90;;;;;;5021647;28;21147;-77
2022/10/04 03:48:41;;;;;;;13.93;8.73;;;10.70;99.90;;;;;;5039159;28;20051;-79
2022/10/04 03:51:12;;;;;;;14.02;9.75;;;10.60;99.90;;;;;;5024062;28;20116;-76
2022/10/04 03:53:46;;;;;;;12.98;10.40;;;10.60;99.90;;;;;;5031872;28;20132;-76
2022/10/04 03:56:33;;;;;;;22.75;11.02;;;10.60;99.90;;;;;;5004424;28;20121;-78
2022/10/04 03:59:02;;;;;;;18.38;10.35;;;10.80;99.90;;;;;;5029620;28;20056;-77
2022/10/04 04:01:40;;;;;;;22.08;10.20;;;10.70;99.90;;;;;;5035748;28;20106;-75
2022/10/04 04:04:33;;;;;;;25.20;10.43;;;10.50;99.90;;;;;;5043668;28;20220;-79
2022/10/04 04:07:24;;;;;;;15.48;10.10;;;10.40;99.90;;;;;;5033717;28;20056;-80
2022/10/04 04:09:58;;;;;;;15.65;11.10;;;10.30;99.90;;;;;;5030742;28;20404;-79
2022/10/04 04:12:48;;;;;;;16.38;9.82;;;10.50;99.90;;;;;;5020128;28;20040;-80
2022/10/04 04:15:16;;;;;;;14.48;8.80;;;10.30;99.90;;;;;;5005322;28;20392;-75
2022/10/04 04:17:44;;;;;;;17.23;10.75;;;10.60;99.90;;;;;;5057574;28;20052;-75
2022/10/04 04:20:30;;;;;;;19.50;9.32;;;10.60;99.90;;;;;;5055548;28;20053;-74
2022/10/04 04:23:01;;;;;;;16.42;10.27;;;10.40;99.90;;;;;;5049827;28;20501;-79
2022/10/04 04:25:28;;;;;;;;;;;10.30;99.90;;;;;;5029121;28;20053;-75
2022/10/04 04:28:01;;;;;;;18.10;10.27;;;10.30;99.90;;;;;;5043320;28;19979;-75
2022/10/04 04:30:30;;;;;;;20.67;9.57;;;10.30;99.90;;;;;;5021612;28;20041;-76
2022/10/04 04:33:00;;;;;;;15.77;10.20;;;10.50;99.90;;;;;;5038244;28;20045;-76
2022/10/04 04:35:32;;;;;;;17.17;9.48;;;10.40;99.90;;;;;;5005308;28;20041;-76
2022/10/04 04:38:13;;;;;;;25.63;11.63;;;10.30;99.90;;;;;;5038914;28;20056;-79
2022/10/04 04:40:39;;;;;;;16.63;9.38;;;10.50;99.90;;;;;;5041801;28;20052;-80
2022/10/04 04:43:05;;;;;;;20.48;10.90;;;10.30;99.90;;;;;;5044098;28;20077;-79
2022/10/04 04:45:32;;;;;;;18.75;10.57;;;10.30;99.90;;;;;;5041753;28;20049;-77
2022/10/04 04:48:00;;;;;;;19.67;10.35;;;10.20;99.90;;;;;;5046855;28;20048;-78
2022/10/04 04:50:35;;;;;;;14.63;9.95;;;10.20;99.90;;;;;;5040974;28;20048;-79
2022/10/04 04:53:13;;;;;;;19.90;9.90;;;10.40;99.90;;;;;;5043533;28;20033;-79
2022/10/04 04:55:46;;;;;;;10.98;9.00;;;10.30;99.90;;;;;;5042060;28;20041;-78
2022/10/04 04:58:20;;;;;;;23.08;10.73;;;10.20;99.90;;;;;;5022911;28;20045;-77
2022/10/04 05:00:53;;;;;;;22.02;11.65;;;10.40;99.90;;;;;;5028678;28;20091;-78
2022/10/04 05:03:20;;;;;;;14.10;9.68;;;10.30;99.90;;;;;;4997467;28;20056;-77
2022/10/04 05:05:46;;;;;;;16.67;11.43;;;10.20;99.90;;;;;;5025619;28;20049;-78
2022/10/04 05:08:21;;;;;;;21.55;10.10;;;10.10;99.90;;;;;;5042665;28;20060;-80
2022/10/04 05:11:14;;;;;;;17.23;9.75;;;10.00;99.90;;;;;;5030067;28;20480;-76
2022/10/04 05:13:44;;;;;;;18.85;10.55;;;10.10;99.90;;;;;;5015158;28;20068;-78
2022/10/04 05:16:20;;;;;;;35.40;12.32;;;10.30;99.90;;;;;;5037103;28;20049;-73
2022/10/04 05:18:47;;;;;;;19.02;10.68;;;10.10;99.90;;;;;;5032106;28;20049;-74
2022/10/04 05:21:19;;;;;;;18.35;12.40;;;10.30;99.90;;;;;;5032585;28;20055;-79
2022/10/04 05:23:46;;;;;;;14.40;10.52;;;10.00;99.90;;;;;;5010723;28;20037;-78
2022/10/04 05:26:13;;;;;;;17.10;9.75;;;9.90;99.90;;;;;;5037212;28;20049;-76
2022/10/04 05:28:40;;;;;;;15.95;10.55;;;10.10;99.90;;;;;;5023045;28;20040;-79
2022/10/04 05:31:18;;;;;;;22.45;11.35;;;10.00;99.90;;;;;;5023182;28;20125;-78
2022/10/04 05:33:48;;;;;;;24.52;12.52;;;10.20;99.90;;;;;;5035538;28;20036;-77
2022/10/04 05:36:45;;;;;;;21.63;13.10;;;10.30;99.90;;;;;;5040747;28;20045;-76
2022/10/04 05:39:14;;;;;;;24.27;14.07;;;10.20;99.90;;;;;;5030592;28;20049;-75
2022/10/04 05:41:53;;;;;;;21.73;13.50;;;10.20;99.90;;;;;;5030591;28;20048;-75
2022/10/04 05:44:28;;;;;;;25.63;14.93;;;10.30;99.90;;;;;;5022669;28;20315;-78
2022/10/04 05:46:57;;;;;;;20.75;12.95;;;10.30;99.90;;;;;;5027805;28;20763;-79
2022/10/04 05:49:27;;;;;;;21.52;13.75;;;10.10;99.90;;;;;;4988167;28;20139;-78
2022/10/04 05:52:02;;;;;;;28.80;14.95;;;10.40;99.90;;;;;;5004659;28;20050;-76
2022/10/04 05:54:31;;;;;;;19.63;11.63;;;10.30;99.90;;;;;;5021785;28;20052;-75
2022/10/04 05:57:06;;;;;;;19.90;13.43;;;10.40;99.90;;;;;;5041685;28;20037;-80
2022/10/04 05:59:54;;;;;;;21.65;12.52;;;10.10;99.90;;;;;;5004104;28;20144;-75
2022/10/04 06:02:38;;;;;;;24.20;14.68;;;10.30;99.90;;;;;;5037564;28;20503;-78
2022/10/04 06:05:36;;;;;;;28.58;13.40;;;10.20;99.90;;;;;;5034230;28;20053;-73
2022/10/04 06:08:33;;;;;;;29.90;15.00;;;10.10;99.90;;;;;;5024469;28;20057;-78
2022/10/04 06:11:17;;;;;;;23.10;13.93;;;10.10;99.90;;;;;;5022011;28;20045;-77
2022/10/04 06:14:06;;;;;;;26.27;13.57;;;10.10;99.90;;;;;;5011671;28;20052;-79
2022/10/04 06:17:15;;;;;;;21.92;14.13;;;10.40;99.90;;;;;;5048299;28;20045;-78
2022/10/04 06:19:51;;;;;;;21.42;13.27;;;10.30;99.90;;;;;;5013709;28;20056;-79
2022/10/04 06:22:21;;;;;;;19.38;14.90;;;10.40;99.90;;;;;;5018061;28;20049;-79
2022/10/04 06:24:57;;;;;;;21.52;13.15;;;10.30;99.90;;;;;;5022640;28;20861;-78
2022/10/04 06:27:40;;;;;;;23.67;14.40;;;10.30;99.90;;;;;;5039942;28;20044;-74
2022/10/04 06:30:13;;;;;;;25.58;14.02;;;10.30;99.90;;;;;;5039445;28;20098;-77
2022/10/04 06:33:09;;;;;;;27.35;13.38;;;10.40;99.90;;;;;;5037713;28;20041;-76
2022/10/04 06:36:04;;;;;;;22.60;14.27;;;10.60;99.90;;;;;;5022578;28;20059;-77
2022/10/04 06:38:32;;;;;;;23.33;14.40;;;10.40;99.90;;;;;;5031114;28;20597;-75
2022/10/04 06:40:58;;;;;;;24.30;13.88;;;10.80;99.90;;;;;;5022320;28;20053;-75
2022/10/04 06:43:45;;;;;;;23.17;13.82;;;10.60;99.90;;;;;;5023877;28;20044;-80
2022/10/04 06:46:14;;;;;;;20.48;12.85;;;10.60;99.90;;;;;;5028194;28;20051;-77
2022/10/04 06:48:42;;;;;;;17.55;12.70;;;10.90;99.90;;;;;;5026898;28;20049;-73
2022/10/04 06:51:46;;;;;;;20.63;14.02;;;10.90;99.90;;;;;;5028864;28;20150;-78
2022/10/04 06:54:21;;;;;;;23.00;14.77;;;10.70;99.90;;;;;;5018831;28;20045;-73
2022/10/04 06:57:17;;;;;;;26.77;13.02;;;10.90;99.90;;;;;;5059087;28;20126;-75
2022/10/04 07:00:12;;;;;;;26.55;13.93;;;10.80;99.90;;;;;;5023731;28;20088;-78
2022/10/04 07:03:11;;;;;;;20.23;12.85;;;10.90;99.90;;;;;;5019303;28;20048;-74
2022/10/04 07:05:36;;;;;;;23.90;13.85;;;10.90;99.90;;;;;;5024685;28;20061;-74
2022/10/04 07:08:33;;;;;;;16.55;12.38;;;11.10;99.90;;;;;;5036751;28;20099;-76
2022/10/04 07:11:22;;;;;;;30.20;14.68;;;11.10;99.90;;;;;;5040767;28;20043;-75
2022/10/04 07:13:55;;;;;;;20.30;12.82;;;11.40;99.90;;;;;;5024115;28;20057;-80
2022/10/04 07:16:27;;;;;;;22.52;13.52;;;11.30;99.90;;;;;;5048012;28;20102;-77
2022/10/04 07:18:59;;;;;;;16.63;11.75;;;11.50;99.90;;;;;;5059611;28;20045;-77
2022/10/04 07:21:34;;;;;;;19.33;13.95;;;11.60;99.90;;;;;;5040946;28;20060;-78
2022/10/04 07:24:02;;;;;;;15.30;11.65;;;11.80;99.90;;;;;;5038431;28;20059;-74
2022/10/04 07:26:35;;;;;;;23.25;10.88;;;12.20;99.90;;;;;;5029967;28;20045;-74
2022/10/04 07:29:19;;;;;;;20.05;12.48;;;12.30;99.90;;;;;;5035272;28;20102;-76
2022/10/04 07:31:47;;;;;;;20.10;12.05;;;12.30;99.90;;;;;;5037344;28;20490;-75
2022/10/04 07:34:23;;;;;;;24.17;12.98;;;12.20;99.90;;;;;;5018699;28;20633;-76
2022/10/04 07:36:58;;;;;;;24.90;13.57;;;12.10;99.90;;;;;;5025645;28;20098;-76
2022/10/04 07:39:30;;;;;;;18.58;12.23;;;12.20;99.90;;;;;;5022686;28;20049;-76
2022/10/04 07:42:08;;;;;;;16.83;11.43;;;12.20;99.90;;;;;;5038149;28;20953;-76
2022/10/04 07:44:40;;;;;;;20.33;11.43;;;12.10;99.90;;;;;;5038954;28;20056;-76
2022/10/04 07:47:26;;;;;;;19.38;11.52;;;12.40;99.90;;;;;;5049261;28;20080;-78
2022/10/04 07:49:53;;;;;;;17.80;12.18;;;12.30;99.90;;;;;;5020678;28;20084;-76
2022/10/04 07:52:38;;;;;;;21.00;12.90;;;12.10;99.90;;;;;;5025272;28;20033;-77
2022/10/04 07:55:27;;;;;;;23.02;13.32;;;12.10;99.90;;;;;;5032223;28;20397;-77
2022/10/04 07:58:06;;;;;;;20.83;12.88;;;12.00;99.90;;;;;;5031327;28;20045;-75
2022/10/04 08:00:52;;;;;;;16.83;13.43;;;12.30;99.90;;;;;;5040462;28;20128;-75
2022/10/04 08:03:30;;;;;;;21.52;13.07;;;12.20;99.90;;;;;;5030993;28;20921;-75
2022/10/04 08:06:15;;;;;;;20.70;12.52;;;12.10;99.90;;;;;;5025465;28;20045;-74
2022/10/04 08:09:12;;;;;;;22.23;12.57;;;12.00;99.90;;;;;;5028573;28;20053;-76
2022/10/04 08:11:56;;;;;;;20.50;12.68;;;11.90;99.90;;;;;;5000276;28;20111;-72
2022/10/04 08:14:57;;;;;;;20.23;13.23;;;12.10;99.90;;;;;;5020172;28;20053;-75
2022/10/04 08:17:49;;;;;;;17.50;13.13;;;12.50;99.90;;;;;;4994707;28;20057;-74
2022/10/04 08:20:29;;;;;;;20.17;12.77;;;12.30;99.90;;;;;;5020964;28;20365;-76
2022/10/04 08:23:21;;;;;;;16.52;11.50;;;12.60;99.90;;;;;;5028831;28;20048;-74
2022/10/04 08:26:17;;;;;;;19.15;13.30;;;12.60;99.90;;;;;;5021665;28;20115;-74
2022/10/04 08:32:29;;;;;;;18.45;11.50;;;12.90;99.90;;;;;;5039888;28;20065;-74
2022/10/04 08:35:01;;;;;;;;;;;13.00;99.90;;;;;;5001875;28;20083;-74
2022/10/04 08:37:32;;;;;;;15.85;11.13;;;13.10;99.90;;;;;;5048412;28;19921;-73
2022/10/04 08:40:22;;;;;;;21.00;11.85;;;13.00;99.90;;;;;;5024032;28;20038;-73
2022/10/04 08:43:07;;;;;;;14.02;9.98;;;13.30;99.90;;;;;;5025234;28;20048;-74
2022/10/04 08:46:09;;;;;;;22.27;11.38;;;13.40;99.90;;;;;;5025636;28;20040;-72
2022/10/04 08:49:08;;;;;;;16.52;10.35;;;13.50;99.90;;;;;;5025249;28;20048;-74
2022/10/04 08:51:53;;;;;;;19.67;9.38;;;13.30;99.90;;;;;;5031039;28;20131;-75
2022/10/04 08:54:49;;;;;;;20.55;10.73;;;13.50;99.90;;;;;;5040481;28;20128;-73
2022/10/04 08:57:48;;;;;;;20.77;10.88;;;13.50;99.90;;;;;;5031687;28;20554;-75
2022/10/04 09:00:29;;;;;;;13.65;8.13;;;13.70;99.90;;;;;;5040379;28;20048;-74
2022/10/04 09:03:19;;;;;;;15.63;9.55;;;13.70;99.90;;;;;;5037950;28;20037;-74
2022/10/04 09:06:40;;;;;;;13.40;9.15;;;13.70;99.90;;;;;;5029532;28;20076;-73
2022/10/04 09:09:12;;;;;;;11.85;8.57;;;13.90;99.90;;;;;;4931555;29;20047;-71
2022/10/04 09:11:40;;;;;;;11.20;7.20;;;14.00;99.90;;;;;;5022798;28;20109;-75
2022/10/04 09:14:29;;;;;;;15.50;8.43;;;14.00;99.90;;;;;;4522455;22;20065;-74
2022/10/04 09:17:22;;;;;;;14.10;8.63;;;14.00;99.90;;;;;;5030519;28;20056;-72
2022/10/04 09:20:20;;;;;;;10.52;9.48;;;14.00;99.90;;;;;;5024024;28;20506;-74
2022/10/04 09:23:27;;;;;;;10.80;9.05;;;14.00;99.90;;;;;;5041544;28;20082;-72
2022/10/04 09:26:05;;;;;;;14.48;9.57;;;14.10;99.90;;;;;;5029931;28;20064;-72
2022/10/04 09:28:43;;;;;;;13.48;9.98;;;14.30;99.90;;;;;;5043905;28;20078;-74
2022/10/04 09:31:21;;;;;;;18.08;10.18;;;14.40;99.90;;;;;;5060887;28;20085;-73
2022/10/04 09:34:13;;;;;;;16.70;9.70;;;14.30;99.90;;;;;;5033716;28;20084;-74
2022/10/04 09:36:58;;;;;;;26.25;10.80;;;14.40;99.90;;;;;;5050039;28;20045;-73
2022/10/04 09:40:05;;;;;;;17.40;10.02;;;14.70;99.90;;;;;;5062436;28;20044;-73
2022/10/04 09:42:37;;;;;;;23.35;11.63;;;14.70;99.90;;;;;;5061199;28;20048;-74
2022/10/04 09:45:38;;;;;;;16.08;10.20;;;14.80;99.90;;;;;;5026783;28;20063;-72
2022/10/04 09:48:24;;;;;;;14.98;10.18;;;14.80;99.90;;;;;;5030691;28;20088;-73
2022/10/04 09:51:06;;;;;;;16.10;10.85;;;14.80;99.90;;;;;;5035910;28;20119;-74
2022/10/04 09:54:02;;;;;;;14.23;11.27;;;15.00;99.90;;;;;;5024681;28;20456;-73
2022/10/04 09:56:55;;;;;;;14.60;11.32;;;14.70;99.90;;;;;;5027948;28;20040;-74
2022/10/04 09:59:55;;;;;;;22.23;13.25;;;14.70;99.90;;;;;;5055700;28;20114;-74
2022/10/04 10:02:43;;;;;;;22.17;10.52;;;14.80;99.90;;;;;;5042696;28;20095;-73
2022/10/04 10:05:48;;;;;;;17.48;10.85;;;15.00;99.90;;;;;;5040580;28;20088;-71
2022/10/04 10:08:16;;;;;;;17.73;10.88;;;15.00;99.90;;;;;;5016557;28;20149;-72
2022/10/04 10:14:08;;;;;;;10.75;9.43;;;15.10;99.90;;;;;;5021666;28;20053;-73
2022/10/04 10:16:52;;;;;;;16.25;10.48;;;15.10;99.90;;;;;;5031322;28;20056;-72
2022/10/04 10:19:32;;;;;;;14.95;11.13;;;14.90;99.90;;;;;;5041041;28;20468;-73
2022/10/04 10:22:16;;;;;;;;;;;15.10;99.90;;;;;;5023220;28;20042;-73
2022/10/04 10:25:10;;;;;;;27.35;11.00;;;15.30;99.90;;;;;;5035934;28;19924;-73
2022/10/04 10:28:01;;;;;;;15.30;10.40;;;15.40;99.90;;;;;;5025002;28;20060;-72
2022/10/04 10:30:53;;;;;;;19.70;12.55;;;15.50;99.90;;;;;;5020010;28;20056;-71
2022/10/04 10:33:56;;;;;;;13.90;11.40;;;15.50;99.90;;;;;;5022931;28;20045;-72
2022/10/04 10:36:28;;;;;;;12.85;10.88;;;15.30;99.90;;;;;;5011419;28;20063;-73
2022/10/04 10:38:53;;;;;;;16.73;10.30;;;15.20;99.90;;;;;;5044154;28;20441;-73
2022/10/04 10:41:40;;;;;;;17.48;12.20;;;15.50;99.90;;;;;;5050904;28;20104;-73
2022/10/04 10:44:46;;;;;;;12.43;9.57;;;15.40;99.90;;;;;;5026341;28;20616;-71
2022/10/04 10:47:25;;;;;;;14.23;10.50;;;15.70;99.90;;;;;;4948591;28;20061;-74
2022/10/04 10:50:13;;;;;;;16.38;11.15;;;15.90;99.90;;;;;;5041790;28;20049;-75
2022/10/04 10:53:17;;;;;;;19.05;9.63;;;15.90;99.90;;;;;;5025166;28;20060;-73
2022/10/04 10:56:17;;;;;;;15.18;9.35;;;15.90;99.90;;;;;;5038126;28;20048;-72
2022/10/04 10:59:02;;;;;;;14.13;9.95;;;16.00;99.90;;;;;;5020794;28;20057;-72
2022/10/04 11:01:59;;;;;;;35.63;10.20;;;16.20;99.90;;;;;;5003162;28;20053;-75
2022/10/04 11:04:50;;;;;;;19.40;10.85;;;16.20;99.90;;;;;;5034775;28;20442;-73
2022/10/04 11:07:49;;;;;;;10.95;8.70;;;16.30;99.90;;;;;;4992407;28;20064;-74
2022/10/04 11:10:36;;;;;;;13.45;8.98;;;16.10;99.90;;;;;;4993745;28;20590;-73
2022/10/04 11:13:35;;;;;;;13.93;9.43;;;16.10;99.90;;;;;;5021826;28;20106;-74
2022/10/04 11:16:22;;;;;;;11.97;9.13;;;16.00;99.90;;;;;;5009443;28;20049;-72
2022/10/04 11:18:57;;;;;;;11.05;8.07;;;16.20;99.90;;;;;;5039171;28;20063;-72
2022/10/04 11:21:32;;;;;;;13.38;9.90;;;16.30;99.90;;;;;;5027241;28;20178;-74
2022/10/04 11:24:12;;;;;;;15.60;8.48;;;16.40;99.90;;;;;;5030204;28;20538;-76
2022/10/04 11:26:51;;;;;;;13.45;8.25;;;16.50;99.90;;;;;;5027844;28;20055;-76
2022/10/04 11:29:32;;;;;;;14.00;8.32;;;16.40;99.90;;;;;;5030767;28;20391;-75
2022/10/04 11:32:00;;;;;;;11.48;7.88;;;16.30;99.90;;;;;;5026203;28;20384;-74
2022/10/04 11:34:29;;;;;;;11.02;7.82;;;16.30;99.90;;;;;;5032434;28;20044;-75
2022/10/04 11:37:01;;;;;;;12.07;7.80;;;16.40;99.90;;;;;;5033404;28;20069;-77
2022/10/04 11:39:54;;;;;;;12.48;7.85;;;16.40;99.90;;;;;;5055424;28;20453;-76
2022/10/04 11:42:47;;;;;;;10.35;8.05;;;16.50;99.90;;;;;;5035508;28;20059;-77
2022/10/04 11:45:32;;;;;;;12.48;7.65;;;16.50;99.90;;;;;;5022794;28;20135;-76
2022/10/04 11:48:08;;;;;;;11.02;7.93;;;16.40;99.90;;;;;;5015368;28;20045;-75
2022/10/04 11:50:41;;;;;;;11.32;7.07;;;16.40;99.90;;;;;;5023848;28;20419;-74
2022/10/04 11:53:24;;;;;;;11.50;8.15;;;16.50;99.90;;;;;;5028182;28;20170;-76
2022/10/04 11:56:03;;;;;;;10.15;8.30;;;16.50;99.90;;;;;;5037967;28;20118;-76
2022/10/04 11:58:47;;;;;;;10.52;7.85;;;16.60;99.90;;;;;;5033088;28;20114;-76
2022/10/04 12:01:31;;;;;;;14.30;7.97;;;16.40;99.90;;;;;;5019847;28;20061;-76
2022/10/04 12:04:16;;;;;;;14.55;8.55;;;16.40;99.90;;;;;;5033299;28;20103;-75
2022/10/04 12:07:13;;;;;;;11.60;7.32;;;16.50;99.90;;;;;;5009014;28;20052;-76
2022/10/04 12:09:41;;;;;;;11.35;7.07;;;16.70;99.90;;;;;;5029227;28;20076;-75
2022/10/04 12:12:51;;;;;;;12.07;6.35;;;16.80;99.90;;;;;;5038033;28;20106;-75
2022/10/04 12:15:53;;;;;;;12.55;7.95;;;16.90;99.90;;;;;;4988555;28;20053;-75
2022/10/04 12:18:41;;;;;;;14.93;8.30;;;16.80;99.90;;;;;;5029692;28;20518;-74
2022/10/04 12:21:28;;;;;;;15.52;7.38;;;16.70;99.90;;;;;;5023508;28;20049;-77
2022/10/04 12:24:17;;;;;;;13.00;6.78;;;17.00;99.90;;;;;;5023568;28;20081;-74
2022/10/04 12:27:01;;;;;;;11.97;6.00;;;17.00;99.90;;;;;;5037682;28;20086;-76
2022/10/04 12:29:55;;;;;;;13.15;7.75;;;17.20;99.90;;;;;;5025433;28;20303;-76
2022/10/04 12:32:51;;;;;;;10.60;6.47;;;17.30;99.90;;;;;;5020304;28;20041;-74
2022/10/04 12:35:39;;;;;;;8.98;6.10;;;17.20;99.90;;;;;;5034872;28;20056;-76
2022/10/04 12:38:29;;;;;;;7.85;5.75;;;17.10;99.90;;;;;;5051263;28;20399;-75
2022/10/04 12:41:44;;;;;;;25.92;8.95;;;17.00;99.90;;;;;;5019089;28;20068;-75
2022/10/04 12:44:32;;;;;;;11.43;5.80;;;16.90;99.90;;;;;;4972476;28;20532;-75
2022/10/04 12:47:23;;;;;;;15.55;7.20;;;16.90;99.90;;;;;;5021070;28;20057;-75
2022/10/04 12:50:16;;;;;;;8.98;5.70;;;17.00;99.90;;;;;;4998587;28;20076;-76
2022/10/04 12:53:20;;;;;;;15.95;9.88;;;17.10;99.90;;;;;;5021827;28;20124;-76
2022/10/04 12:56:10;;;;;;;12.73;7.43;;;16.90;99.90;;;;;;5041603;28;20056;-74
2022/10/04 12:58:54;;;;;;;8.57;7.07;;;17.10;99.90;;;;;;5034227;28;20049;-76
2022/10/04 13:01:47;;;;;;;11.07;6.60;;;17.10;99.90;;;;;;5033755;28;20057;-75
2022/10/04 13:04:18;;;;;;;9.02;6.50;;;17.40;99.90;;;;;;5011319;28;20057;-76
2022/10/04 13:06:56;;;;;;;10.38;6.93;;;17.30;99.90;;;;;;5043654;28;20383;-77
2022/10/04 13:09:42;;;;;;;9.38;6.18;;;17.50;99.90;;;;;;5027577;28;20041;-74
2022/10/04 13:12:27;;;;;;;12.10;6.80;;;17.50;99.90;;;;;;5028995;28;20116;-76
2022/10/04 13:15:21;;;;;;;8.68;5.82;;;17.30;99.90;;;;;;5024016;28;20045;-74
2022/10/04 13:18:03;;;;;;;10.80;6.93;;;17.30;99.90;;;;;;5023607;28;20437;-76
2022/10/04 13:20:47;;;;;;;11.43;6.25;;;17.50;99.90;;;;;;5037106;28;20411;-75
2022/10/04 13:23:43;;;;;;;9.20;5.65;;;17.60;99.90;;;;;;5022493;28;20459;-76
2022/10/04 13:26:27;;;;;;;9.45;5.88;;;17.60;99.90;;;;;;5018585;28;20053;-75
2022/10/04 13:29:16;;;;;;;9.90;4.68;;;17.30;99.90;;;;;;5038689;28;20131;-75
2022/10/04 13:31:58;;;;;;;10.77;6.07;;;17.20;99.90;;;;;;5005731;28;20172;-75
2022/10/04 13:34:31;;;;;;;12.30;5.35;;;17.20;99.90;;;;;;5012565;28;20140;-76
2022/10/04 13:37:05;;;;;;;11.20;6.80;;;17.40;99.90;;;;;;5023450;28;20056;-75
2022/10/04 13:39:40;;;;;;;12.23;6.40;;;17.40;99.90;;;;;;5030882;28;20943;-76
2022/10/04 13:42:24;;;;;;;7.60;5.15;;;17.50;99.90;;;;;;5042418;28;20079;-75
2022/10/04 13:45:17;;;;;;;9.13;4.70;;;17.50;99.90;;;;;;5024090;28;20068;-75
2022/10/04 13:48:25;;;;;;;10.23;5.82;;;17.50;99.90;;;;;;5022412;28;20045;-75
2022/10/04 13:51:02;;;;;;;15.07;7.15;;;17.50;99.90;;;;;;5042351;28;20045;-76